sensor_id;sensor_type;location;lat;lon;timestamp;temperature;humidity
52209;DHT22;38507;53.132;6.394;2023-04-15T00:00:58;7.20;99.90
52209;DHT22;38507;53.132;6.394;2023-04-15T00:03:24;7.70;99.90
52209;DHT22;38507;53.132;6.394;2023-04-15T00:05:49;7.20;99.90
52209;DHT22;38507;53.132;6.394;2023-04-15T00:08:16;7.10;99.90
52209;DHT22;38507;53.132;6.394;2023-04-15T00:10:42;7.10;99.90
52209;DHT22;38507;53.132;6.394;2023-04-15T00:13:10;7.60;99.90
52209;DHT22;38507;53.132;6.394;2023-04-15T00:15:36;7.60;99.90
52209;DHT22;38507;53.132;6.394;2023-04-15T00:18:02;7.80;99.90
52209;DHT22;38507;53.132;6.394;2023-04-15T00:20:28;7.00;99.90
52209;DHT22;38507;53.132;6.394;2023-04-15T00:22:54;7.30;99.90
52209;DHT22;38507;53.132;6.394;2023-04-15T00:25:20;6.90;99.90
52209;DHT22;38507;53.132;6.394;2023-04-15T00:27:45;7.30;99.90
52209;DHT22;38507;53.132;6.394;2023-04-15T00:30:11;6.90;99.90
52209;DHT22;38507;53.132;6.394;2023-04-15T00:32:37;6.80;99.90
52209;DHT22;38507;53.132;6.394;2023-04-15T00:35:02;6.80;99.90
52209;DHT22;38507;53.132;6.394;2023-04-15T00:37:28;6.80;99.90
52209;DHT22;38507;53.132;6.394;2023-04-15T00:39:54;6.80;99.90
52209;DHT22;38507;53.132;6.394;2023-04-15T00:42:20;6.80;99.90
52209;DHT22;38507;53.132;6.394;2023-04-15T00:44:46;6.80;99.90
52209;DHT22;38507;53.132;6.394;2023-04-15T00:47:12;6.70;99.90
52209;DHT22;38507;53.132;6.394;2023-04-15T00:49:38;6.70;99.90
52209;DHT22;38507;53.132;6.394;2023-04-15T00:52:04;6.70;99.90
52209;DHT22;38507;53.132;6.394;2023-04-15T00:54:30;6.70;99.90
52209;DHT22;38507;53.132;6.394;2023-04-15T00:56:56;6.70;99.90
52209;DHT22;38507;53.132;6.394;2023-04-15T00:59:22;7.00;99.90
52209;DHT22;38507;53.132;6.394;2023-04-15T01:01:48;6.70;99.90
52209;DHT22;38507;53.132;6.394;2023-04-15T01:04:15;7.20;99.90
52209;DHT22;38507;53.132;6.394;2023-04-15T01:06:40;6.90;99.90
52209;DHT22;38507;53.132;6.394;2023-04-15T01:09:06;6.60;99.90
52209;DHT22;38507;53.132;6.394;2023-04-15T01:11:32;6.50;99.90
52209;DHT22;38507;53.132;6.394;2023-04-15T01:13:59;7.20;99.90
52209;DHT22;38507;53.132;6.394;2023-04-15T01:16:25;6.50;99.90
52209;DHT22;38507;53.132;6.394;2023-04-15T01:18:51;6.50;99.90
52209;DHT22;38507;53.132;6.394;2023-04-15T01:21:17;6.40;99.90
52209;DHT22;38507;53.132;6.394;2023-04-15T01:23:46;7.30;99.90
52209;DHT22;38507;53.132;6.394;2023-04-15T01:26:12;6.70;99.90
52209;DHT22;38507;53.132;6.394;2023-04-15T01:28:38;7.30;99.90
52209;DHT22;38507;53.132;6.394;2023-04-15T01:31:08;7.30;99.90
52209;DHT22;38507;53.132;6.394;2023-04-15T01:33:35;6.30;99.90
52209;DHT22;38507;53.132;6.394;2023-04-15T01:36:01;7.10;99.90
52209;DHT22;38507;53.132;6.394;2023-04-15T01:38:28;7.10;99.90
52209;DHT22;38507;53.132;6.394;2023-04-15T01:40:55;7.10;99.90
52209;DHT22;38507;53.132;6.394;2023-04-15T01:43:20;6.30;99.90
52209;DHT22;38507;53.132;6.394;2023-04-15T01:45:46;6.20;99.90
52209;DHT22;38507;53.132;6.394;2023-04-15T01:48:12;6.20;99.90
52209;DHT22;38507;53.132;6.394;2023-04-15T01:50:37;6.20;99.90
52209;DHT22;38507;53.132;6.394;2023-04-15T01:53:03;6.70;99.90
52209;DHT22;38507;53.132;6.394;2023-04-15T01:55:29;6.40;99.90
52209;DHT22;38507;53.132;6.394;2023-04-15T01:57:55;6.40;99.90
52209;DHT22;38507;53.132;6.394;2023-04-15T02:00:21;6.10;99.90
52209;DHT22;38507;53.132;6.394;2023-04-15T02:02:47;6.90;99.90
52209;DHT22;38507;53.132;6.394;2023-04-15T02:05:14;6.00;99.90
52209;DHT22;38507;53.132;6.394;2023-04-15T02:07:43;6.00;99.90
52209;DHT22;38507;53.132;6.394;2023-04-15T02:10:10;6.00;99.90
52209;DHT22;38507;53.132;6.394;2023-04-15T02:12:38;6.00;99.90
52209;DHT22;38507;53.132;6.394;2023-04-15T02:15:04;6.00;99.90
52209;DHT22;38507;53.132;6.394;2023-04-15T02:17:33;6.00;99.90
52209;DHT22;38507;53.132;6.394;2023-04-15T02:19:59;5.90;99.90
52209;DHT22;38507;53.132;6.394;2023-04-15T02:22:25;5.90;99.90
52209;DHT22;38507;53.132;6.394;2023-04-15T02:24:51;5.90;99.90
52209;DHT22;38507;53.132;6.394;2023-04-15T02:27:17;6.30;99.90
52209;DHT22;38507;53.132;6.394;2023-04-15T02:29:45;6.60;99.90
52209;DHT22;38507;53.132;6.394;2023-04-15T02:32:13;6.60;99.90
52209;DHT22;38507;53.132;6.394;2023-04-15T02:34:39;5.80;99.90
52209;DHT22;38507;53.132;6.394;2023-04-15T02:37:07;5.80;99.90
52209;DHT22;38507;53.132;6.394;2023-04-15T02:39:33;5.80;99.90
52209;DHT22;38507;53.132;6.394;2023-04-15T02:41:59;5.80;99.90
52209;DHT22;38507;53.132;6.394;2023-04-15T02:44:26;5.80;99.90
52209;DHT22;38507;53.132;6.394;2023-04-15T02:46:52;5.50;99.90
52209;DHT22;38507;53.132;6.394;2023-04-15T02:49:21;5.80;99.90
52209;DHT22;38507;53.132;6.394;2023-04-15T02:51:47;6.10;99.90
52209;DHT22;38507;53.132;6.394;2023-04-15T02:54:18;5.70;99.90
52209;DHT22;38507;53.132;6.394;2023-04-15T02:56:44;6.20;99.90
52209;DHT22;38507;53.132;6.394;2023-04-15T02:59:10;6.10;99.90
52209;DHT22;38507;53.132;6.394;2023-04-15T03:01:36;5.70;99.90
52209;DHT22;38507;53.132;6.394;2023-04-15T03:04:02;6.20;99.90
52209;DHT22;38507;53.132;6.394;2023-04-15T03:06:28;5.60;99.90
52209;DHT22;38507;53.132;6.394;2023-04-15T03:08:53;6.00;99.90
52209;DHT22;38507;53.132;6.394;2023-04-15T03:11:19;5.60;99.90
52209;DHT22;38507;53.132;6.394;2023-04-15T03:13:45;5.90;99.90
52209;DHT22;38507;53.132;6.394;2023-04-15T03:16:11;5.60;99.90
52209;DHT22;38507;53.132;6.394;2023-04-15T03:18:37;6.30;99.90
52209;DHT22;38507;53.132;6.394;2023-04-15T03:21:03;5.50;99.90
52209;DHT22;38507;53.132;6.394;2023-04-15T03:23:30;5.40;99.90
52209;DHT22;38507;53.132;6.394;2023-04-15T03:25:56;5.40;99.90
52209;DHT22;38507;53.132;6.394;2023-04-15T03:28:22;5.50;99.90
52209;DHT22;38507;53.132;6.394;2023-04-15T03:30:48;5.70;99.90
52209;DHT22;38507;53.132;6.394;2023-04-15T03:33:14;6.20;99.90
52209;DHT22;38507;53.132;6.394;2023-04-15T03:35:39;5.90;99.90
52209;DHT22;38507;53.132;6.394;2023-04-15T03:38:05;5.80;99.90
52209;DHT22;38507;53.132;6.394;2023-04-15T03:40:31;5.20;99.90
52209;DHT22;38507;53.132;6.394;2023-04-15T03:42:57;5.10;99.90
52209;DHT22;38507;53.132;6.394;2023-04-15T03:45:22;5.00;99.90
52209;DHT22;38507;53.132;6.394;2023-04-15T03:47:48;5.10;99.90
52209;DHT22;38507;53.132;6.394;2023-04-15T03:50:14;5.10;99.90
52209;DHT22;38507;53.132;6.394;2023-04-15T03:52:40;5.50;99.90
52209;DHT22;38507;53.132;6.394;2023-04-15T03:55:06;5.50;99.90
52209;DHT22;38507;53.132;6.394;2023-04-15T03:57:33;4.90;99.90
52209;DHT22;38507;53.132;6.394;2023-04-15T04:00:03;5.20;99.90
52209;DHT22;38507;53.132;6.394;2023-04-15T04:02:29;4.90;99.90
52209;DHT22;38507;53.132;6.394;2023-04-15T04:04:54;5.40;99.90
52209;DHT22;38507;53.132;6.394;2023-04-15T04:07:22;4.80;99.90
52209;DHT22;38507;53.132;6.394;2023-04-15T04:09:48;4.70;99.90
52209;DHT22;38507;53.132;6.394;2023-04-15T04:12:14;4.70;99.90
52209;DHT22;38507;53.132;6.394;2023-04-15T04:14:40;4.80;99.90
52209;DHT22;38507;53.132;6.394;2023-04-15T04:17:05;4.70;99.90
52209;DHT22;38507;53.132;6.394;2023-04-15T04:19:31;4.70;99.90
52209;DHT22;38507;53.132;6.394;2023-04-15T04:21:57;4.50;99.90
52209;DHT22;38507;53.132;6.394;2023-04-15T04:24:22;4.70;99.90
52209;DHT22;38507;53.132;6.394;2023-04-15T04:26:48;4.60;99.90
52209;DHT22;38507;53.132;6.394;2023-04-15T04:29:14;4.60;99.90
52209;DHT22;38507;53.132;6.394;2023-04-15T04:31:39;4.60;99.90
52209;DHT22;38507;53.132;6.394;2023-04-15T04:34:05;5.30;99.90
52209;DHT22;38507;53.132;6.394;2023-04-15T04:36:32;4.50;99.90
52209;DHT22;38507;53.132;6.394;2023-04-15T04:38:57;5.30;99.90
52209;DHT22;38507;53.132;6.394;2023-04-15T04:41:23;5.10;99.90
52209;DHT22;38507;53.132;6.394;2023-04-15T04:43:49;3.90;99.90
52209;DHT22;38507;53.132;6.394;2023-04-15T04:46:14;4.50;99.90
52209;DHT22;38507;53.132;6.394;2023-04-15T04:48:40;4.80;99.90
52209;DHT22;38507;53.132;6.394;2023-04-15T04:51:06;5.30;99.90
52209;DHT22;38507;53.132;6.394;2023-04-15T04:53:32;4.30;99.90
52209;DHT22;38507;53.132;6.394;2023-04-15T04:55:58;4.40;99.90
52209;DHT22;38507;53.132;6.394;2023-04-15T04:58:24;4.20;99.90
52209;DHT22;38507;53.132;6.394;2023-04-15T05:00:49;4.80;99.90
52209;DHT22;38507;53.132;6.394;2023-04-15T05:03:16;4.50;99.90
52209;DHT22;38507;53.132;6.394;2023-04-15T05:05:41;4.70;99.90
52209;DHT22;38507;53.132;6.394;2023-04-15T05:08:07;4.10;99.90
52209;DHT22;38507;53.132;6.394;2023-04-15T05:10:33;4.10;99.90
52209;DHT22;38507;53.132;6.394;2023-04-15T05:12:59;4.70;99.90
52209;DHT22;38507;53.132;6.394;2023-04-15T05:15:25;4.00;99.90
52209;DHT22;38507;53.132;6.394;2023-04-15T05:17:50;4.00;99.90
52209;DHT22;38507;53.132;6.394;2023-04-15T05:20:16;4.70;99.90
52209;DHT22;38507;53.132;6.394;2023-04-15T05:22:42;3.90;99.90
52209;DHT22;38507;53.132;6.394;2023-04-15T05:25:08;3.90;99.90
52209;DHT22;38507;53.132;6.394;2023-04-15T05:27:34;3.90;99.90
52209;DHT22;38507;53.132;6.394;2023-04-15T05:30:00;4.40;99.90
52209;DHT22;38507;53.132;6.394;2023-04-15T05:32:26;4.90;99.90
52209;DHT22;38507;53.132;6.394;2023-04-15T05:34:51;3.90;99.90
52209;DHT22;38507;53.132;6.394;2023-04-15T05:37:17;4.40;99.90
52209;DHT22;38507;53.132;6.394;2023-04-15T05:39:45;4.00;99.90
52209;DHT22;38507;53.132;6.394;2023-04-15T05:42:11;4.10;99.90
52209;DHT22;38507;53.132;6.394;2023-04-15T05:44:36;4.10;99.90
52209;DHT22;38507;53.132;6.394;2023-04-15T05:47:02;4.70;99.90
52209;DHT22;38507;53.132;6.394;2023-04-15T05:49:28;4.30;99.90
52209;DHT22;38507;53.132;6.394;2023-04-15T05:51:54;5.00;99.90
52209;DHT22;38507;53.132;6.394;2023-04-15T05:54:20;4.40;99.90
52209;DHT22;38507;53.132;6.394;2023-04-15T05:56:48;5.30;99.90
52209;DHT22;38507;53.132;6.394;2023-04-15T05:59:13;4.50;99.90
52209;DHT22;38507;53.132;6.394;2023-04-15T06:01:40;5.30;99.90
52209;DHT22;38507;53.132;6.394;2023-04-15T06:04:06;4.70;99.90
52209;DHT22;38507;53.132;6.394;2023-04-15T06:06:31;4.80;99.90
52209;DHT22;38507;53.132;6.394;2023-04-15T06:08:57;4.90;99.90
52209;DHT22;38507;53.132;6.394;2023-04-15T06:11:23;5.00;99.90
52209;DHT22;38507;53.132;6.394;2023-04-15T06:13:49;5.10;99.90
52209;DHT22;38507;53.132;6.394;2023-04-15T06:16:14;5.20;99.90
52209;DHT22;38507;53.132;6.394;2023-04-15T06:18:40;5.30;99.90
52209;DHT22;38507;53.132;6.394;2023-04-15T06:21:06;5.40;99.90
52209;DHT22;38507;53.132;6.394;2023-04-15T06:23:35;6.30;99.90
52209;DHT22;38507;53.132;6.394;2023-04-15T06:26:01;6.50;99.90
52209;DHT22;38507;53.132;6.394;2023-04-15T06:28:28;5.70;99.90
52209;DHT22;38507;53.132;6.394;2023-04-15T06:30:54;5.80;99.90
52209;DHT22;38507;53.132;6.394;2023-04-15T06:33:20;6.80;99.90
52209;DHT22;38507;53.132;6.394;2023-04-15T06:35:45;6.00;99.90
52209;DHT22;38507;53.132;6.394;2023-04-15T06:38:12;6.10;99.90
52209;DHT22;38507;53.132;6.394;2023-04-15T06:40:38;6.60;99.90
52209;DHT22;38507;53.132;6.394;2023-04-15T06:43:04;6.70;99.90
52209;DHT22;38507;53.132;6.394;2023-04-15T06:45:30;6.40;99.90
52209;DHT22;38507;53.132;6.394;2023-04-15T06:47:56;6.80;99.90
52209;DHT22;38507;53.132;6.394;2023-04-15T06:50:22;6.70;99.90
52209;DHT22;38507;53.132;6.394;2023-04-15T06:52:47;7.20;99.90
52209;DHT22;38507;53.132;6.394;2023-04-15T06:55:13;7.60;99.90
52209;DHT22;38507;53.132;6.394;2023-04-15T06:57:39;7.00;99.90
52209;DHT22;38507;53.132;6.394;2023-04-15T07:00:05;7.10;99.90
52209;DHT22;38507;53.132;6.394;2023-04-15T07:02:35;7.20;99.90
52209;DHT22;38507;53.132;6.394;2023-04-15T07:05:01;7.30;99.90
52209;DHT22;38507;53.132;6.394;2023-04-15T07:07:26;7.40;99.90
52209;DHT22;38507;53.132;6.394;2023-04-15T07:09:52;7.60;99.90
52209;DHT22;38507;53.132;6.394;2023-04-15T07:12:18;7.80;99.90
52209;DHT22;38507;53.132;6.394;2023-04-15T07:14:44;8.20;99.90
52209;DHT22;38507;53.132;6.394;2023-04-15T07:17:09;7.90;99.90
52209;DHT22;38507;53.132;6.394;2023-04-15T07:19:36;7.90;99.90
52209;DHT22;38507;53.132;6.394;2023-04-15T07:22:02;8.40;99.90
52209;DHT22;38507;53.132;6.394;2023-04-15T07:24:28;8.10;99.90
52209;DHT22;38507;53.132;6.394;2023-04-15T07:26:54;8.20;99.90
52209;DHT22;38507;53.132;6.394;2023-04-15T07:29:23;8.20;99.90
52209;DHT22;38507;53.132;6.394;2023-04-15T07:31:49;8.40;99.90
52209;DHT22;38507;53.132;6.394;2023-04-15T07:34:15;8.50;99.90
52209;DHT22;38507;53.132;6.394;2023-04-15T07:36:41;8.50;99.90
52209;DHT22;38507;53.132;6.394;2023-04-15T07:39:07;8.70;99.90
52209;DHT22;38507;53.132;6.394;2023-04-15T07:41:33;8.70;99.90
52209;DHT22;38507;53.132;6.394;2023-04-15T07:43:59;8.80;99.90
52209;DHT22;38507;53.132;6.394;2023-04-15T07:46:25;8.80;99.90
52209;DHT22;38507;53.132;6.394;2023-04-15T07:48:52;8.90;99.90
52209;DHT22;38507;53.132;6.394;2023-04-15T07:51:19;8.90;99.90
52209;DHT22;38507;53.132;6.394;2023-04-15T07:53:46;9.40;99.90
52209;DHT22;38507;53.132;6.394;2023-04-15T07:56:12;9.10;99.90
52209;DHT22;38507;53.132;6.394;2023-04-15T07:58:38;9.20;99.90
52209;DHT22;38507;53.132;6.394;2023-04-15T08:01:04;9.20;99.90
52209;DHT22;38507;53.132;6.394;2023-04-15T08:03:30;9.20;99.90
52209;DHT22;38507;53.132;6.394;2023-04-15T08:05:57;9.20;99.90
52209;DHT22;38507;53.132;6.394;2023-04-15T08:08:23;9.30;99.90
52209;DHT22;38507;53.132;6.394;2023-04-15T08:10:50;9.30;99.90
52209;DHT22;38507;53.132;6.394;2023-04-15T08:13:16;9.30;99.90
52209;DHT22;38507;53.132;6.394;2023-04-15T08:15:41;9.30;99.90
52209;DHT22;38507;53.132;6.394;2023-04-15T08:18:07;9.30;99.90
52209;DHT22;38507;53.132;6.394;2023-04-15T08:20:33;9.30;99.90
52209;DHT22;38507;53.132;6.394;2023-04-15T08:22:58;9.30;99.90
52209;DHT22;38507;53.132;6.394;2023-04-15T08:25:24;9.40;99.90
52209;DHT22;38507;53.132;6.394;2023-04-15T08:27:50;9.30;99.90
52209;DHT22;38507;53.132;6.394;2023-04-15T08:30:15;9.70;99.90
52209;DHT22;38507;53.132;6.394;2023-04-15T08:32:44;9.30;99.90
52209;DHT22;38507;53.132;6.394;2023-04-15T08:35:11;9.20;99.90
52209;DHT22;38507;53.132;6.394;2023-04-15T08:37:37;9.20;99.90
52209;DHT22;38507;53.132;6.394;2023-04-15T08:40:03;9.20;99.90
52209;DHT22;38507;53.132;6.394;2023-04-15T08:42:41;9.20;99.90
52209;DHT22;38507;53.132;6.394;2023-04-15T08:45:08;9.10;99.90
52209;DHT22;38507;53.132;6.394;2023-04-15T08:47:37;9.20;99.90
52209;DHT22;38507;53.132;6.394;2023-04-15T08:50:04;9.60;99.90
52209;DHT22;38507;53.132;6.394;2023-04-15T08:52:33;9.20;99.90
52209;DHT22;38507;53.132;6.394;2023-04-15T08:54:59;9.40;99.90
52209;DHT22;38507;53.132;6.394;2023-04-15T08:57:27;9.20;99.90
52209;DHT22;38507;53.132;6.394;2023-04-15T08:59:55;9.20;99.90
52209;DHT22;38507;53.132;6.394;2023-04-15T09:02:22;9.20;99.90
52209;DHT22;38507;53.132;6.394;2023-04-15T09:04:48;9.30;99.90
52209;DHT22;38507;53.132;6.394;2023-04-15T09:07:14;9.30;99.90
52209;DHT22;38507;53.132;6.394;2023-04-15T09:09:40;9.30;99.90
52209;DHT22;38507;53.132;6.394;2023-04-15T09:12:07;9.30;99.90
52209;DHT22;38507;53.132;6.394;2023-04-15T09:14:33;9.20;99.90
52209;DHT22;38507;53.132;6.394;2023-04-15T09:17:01;9.20;99.90
52209;DHT22;38507;53.132;6.394;2023-04-15T09:19:27;9.60;99.90
52209;DHT22;38507;53.132;6.394;2023-04-15T09:21:55;9.50;99.90
52209;DHT22;38507;53.132;6.394;2023-04-15T09:24:22;9.10;99.90
52209;DHT22;38507;53.132;6.394;2023-04-15T09:26:51;9.20;99.90
52209;DHT22;38507;53.132;6.394;2023-04-15T09:29:18;9.10;99.90
52209;DHT22;38507;53.132;6.394;2023-04-15T09:31:43;9.30;99.90
52209;DHT22;38507;53.132;6.394;2023-04-15T09:34:09;9.30;99.90
52209;DHT22;38507;53.132;6.394;2023-04-15T09:36:51;9.10;99.90
52209;DHT22;38507;53.132;6.394;2023-04-15T09:39:17;9.70;99.90
52209;DHT22;38507;53.132;6.394;2023-04-15T09:41:43;9.30;99.90
52209;DHT22;38507;53.132;6.394;2023-04-15T09:44:38;9.60;99.90
52209;DHT22;38507;53.132;6.394;2023-04-15T09:47:04;9.60;99.90
52209;DHT22;38507;53.132;6.394;2023-04-15T09:49:30;9.60;99.90
52209;DHT22;38507;53.132;6.394;2023-04-15T09:51:59;9.80;99.90
52209;DHT22;38507;53.132;6.394;2023-04-15T09:54:32;10.10;99.90
52209;DHT22;38507;53.132;6.394;2023-04-15T09:57:04;9.80;99.90
52209;DHT22;38507;53.132;6.394;2023-04-15T09:59:30;9.90;99.90
52209;DHT22;38507;53.132;6.394;2023-04-15T10:01:56;10.00;99.90
52209;DHT22;38507;53.132;6.394;2023-04-15T10:04:22;10.00;99.90
52209;DHT22;38507;53.132;6.394;2023-04-15T10:06:48;10.00;99.90
52209;DHT22;38507;53.132;6.394;2023-04-15T10:09:15;10.20;99.90
52209;DHT22;38507;53.132;6.394;2023-04-15T10:11:43;10.50;99.90
52209;DHT22;38507;53.132;6.394;2023-04-15T10:14:10;10.20;99.90
52209;DHT22;38507;53.132;6.394;2023-04-15T10:16:40;10.20;99.90
52209;DHT22;38507;53.132;6.394;2023-04-15T10:19:08;10.20;99.90
52209;DHT22;38507;53.132;6.394;2023-04-15T10:21:36;10.20;99.90
52209;DHT22;38507;53.132;6.394;2023-04-15T10:24:02;10.20;99.90
52209;DHT22;38507;53.132;6.394;2023-04-15T10:26:28;10.50;99.90
52209;DHT22;38507;53.132;6.394;2023-04-15T10:28:54;10.70;99.90
52209;DHT22;38507;53.132;6.394;2023-04-15T10:31:20;10.70;99.90
52209;DHT22;38507;53.132;6.394;2023-04-15T10:33:47;10.60;99.90
52209;DHT22;38507;53.132;6.394;2023-04-15T10:36:29;10.30;99.90
52209;DHT22;38507;53.132;6.394;2023-04-15T10:38:55;10.30;99.90
52209;DHT22;38507;53.132;6.394;2023-04-15T10:41:25;10.70;99.90
52209;DHT22;38507;53.132;6.394;2023-04-15T10:44:10;10.20;99.90
52209;DHT22;38507;53.132;6.394;2023-04-15T10:46:36;10.60;99.90
52209;DHT22;38507;53.132;6.394;2023-04-15T10:49:17;10.50;99.90
52209;DHT22;38507;53.132;6.394;2023-04-15T10:51:56;10.00;99.90
52209;DHT22;38507;53.132;6.394;2023-04-15T10:56:51;10.10;99.90
52209;DHT22;38507;53.132;6.394;2023-04-15T10:59:17;10.50;99.90
52209;DHT22;38507;53.132;6.394;2023-04-15T11:01:53;10.00;99.90
52209;DHT22;38507;53.132;6.394;2023-04-15T11:04:52;10.10;99.90
52209;DHT22;38507;53.132;6.394;2023-04-15T11:15:35;10.00;99.90
52209;DHT22;38507;53.132;6.394;2023-04-15T11:18:13;10.10;99.90
52209;DHT22;38507;53.132;6.394;2023-04-15T11:20:40;10.10;99.90
52209;DHT22;38507;53.132;6.394;2023-04-15T11:23:07;10.30;99.90
52209;DHT22;38507;53.132;6.394;2023-04-15T11:25:34;10.10;99.90
52209;DHT22;38507;53.132;6.394;2023-04-15T11:28:02;10.20;99.90
52209;DHT22;38507;53.132;6.394;2023-04-15T11:30:31;10.20;99.90
52209;DHT22;38507;53.132;6.394;2023-04-15T11:33:02;10.30;99.90
52209;DHT22;38507;53.132;6.394;2023-04-15T11:35:28;10.30;99.90
52209;DHT22;38507;53.132;6.394;2023-04-15T11:37:54;10.20;99.90
52209;DHT22;38507;53.132;6.394;2023-04-15T11:40:28;10.20;99.90
52209;DHT22;38507;53.132;6.394;2023-04-15T11:45:32;10.40;99.90
52209;DHT22;38507;53.132;6.394;2023-04-15T11:48:11;10.40;99.90
52209;DHT22;38507;53.132;6.394;2023-04-15T11:50:38;10.30;99.90
52209;DHT22;38507;53.132;6.394;2023-04-15T11:53:11;10.20;99.90
52209;DHT22;38507;53.132;6.394;2023-04-15T11:55:45;10.30;99.90
52209;DHT22;38507;53.132;6.394;2023-04-15T11:58:22;10.30;99.90
52209;DHT22;38507;53.132;6.394;2023-04-15T12:03:27;10.20;99.90
52209;DHT22;38507;53.132;6.394;2023-04-15T12:08:48;10.20;99.90
52209;DHT22;38507;53.132;6.394;2023-04-15T12:11:15;10.20;99.90
52209;DHT22;38507;53.132;6.394;2023-04-15T12:13:45;10.50;99.90
52209;DHT22;38507;53.132;6.394;2023-04-15T12:16:11;10.60;99.90
52209;DHT22;38507;53.132;6.394;2023-04-15T12:18:37;10.20;99.90
52209;DHT22;38507;53.132;6.394;2023-04-15T12:21:09;10.10;99.90
52209;DHT22;38507;53.132;6.394;2023-04-15T12:23:48;10.40;99.90
52209;DHT22;38507;53.132;6.394;2023-04-15T12:26:25;10.00;99.90
52209;DHT22;38507;53.132;6.394;2023-04-15T12:28:58;9.90;99.90
52209;DHT22;38507;53.132;6.394;2023-04-15T12:31:25;10.10;99.90
52209;DHT22;38507;53.132;6.394;2023-04-15T12:33:50;9.90;99.90
52209;DHT22;38507;53.132;6.394;2023-04-15T12:36:16;10.20;99.90
52209;DHT22;38507;53.132;6.394;2023-04-15T12:38:42;9.90;99.90
52209;DHT22;38507;53.132;6.394;2023-04-15T12:41:07;9.90;99.90
52209;DHT22;38507;53.132;6.394;2023-04-15T12:43:33;9.90;99.90
52209;DHT22;38507;53.132;6.394;2023-04-15T12:45:58;10.30;99.90
52209;DHT22;38507;53.132;6.394;2023-04-15T12:48:24;9.90;99.90
52209;DHT22;38507;53.132;6.394;2023-04-15T12:50:50;10.00;99.90
52209;DHT22;38507;53.132;6.394;2023-04-15T12:53:15;10.10;99.90
52209;DHT22;38507;53.132;6.394;2023-04-15T12:55:41;10.10;99.90
52209;DHT22;38507;53.132;6.394;2023-04-15T12:58:07;10.70;99.90
52209;DHT22;38507;53.132;6.394;2023-04-15T13:00:33;10.10;99.90
52209;DHT22;38507;53.132;6.394;2023-04-15T13:02:59;10.10;99.90
52209;DHT22;38507;53.132;6.394;2023-04-15T13:05:25;10.40;99.90
52209;DHT22;38507;53.132;6.394;2023-04-15T13:07:51;10.00;99.90
52209;DHT22;38507;53.132;6.394;2023-04-15T13:10:16;10.30;99.90
52209;DHT22;38507;53.132;6.394;2023-04-15T13:12:42;10.10;99.90
52209;DHT22;38507;53.132;6.394;2023-04-15T13:15:08;10.10;99.90
52209;DHT22;38507;53.132;6.394;2023-04-15T13:17:35;10.00;99.90
52209;DHT22;38507;53.132;6.394;2023-04-15T13:20:01;10.00;99.90
52209;DHT22;38507;53.132;6.394;2023-04-15T13:22:27;10.30;99.90
52209;DHT22;38507;53.132;6.394;2023-04-15T13:24:52;10.00;99.90
52209;DHT22;38507;53.132;6.394;2023-04-15T13:27:18;10.10;99.90
52209;DHT22;38507;53.132;6.394;2023-04-15T13:29:43;10.00;99.90
52209;DHT22;38507;53.132;6.394;2023-04-15T13:32:09;10.00;99.90
52209;DHT22;38507;53.132;6.394;2023-04-15T13:34:38;10.20;99.90
52209;DHT22;38507;53.132;6.394;2023-04-15T13:37:13;10.60;99.90
52209;DHT22;38507;53.132;6.394;2023-04-15T13:39:39;10.60;99.90
52209;DHT22;38507;53.132;6.394;2023-04-15T13:42:04;10.00;99.90
52209;DHT22;38507;53.132;6.394;2023-04-15T13:44:30;10.40;99.90
52209;DHT22;38507;53.132;6.394;2023-04-15T13:46:56;10.00;99.90
52209;DHT22;38507;53.132;6.394;2023-04-15T13:49:21;9.80;99.90
52209;DHT22;38507;53.132;6.394;2023-04-15T13:51:47;9.80;99.90
52209;DHT22;38507;53.132;6.394;2023-04-15T13:54:12;9.70;99.90
52209;DHT22;38507;53.132;6.394;2023-04-15T13:56:38;9.70;99.90
52209;DHT22;38507;53.132;6.394;2023-04-15T13:59:04;9.60;99.90
52209;DHT22;38507;53.132;6.394;2023-04-15T14:01:31;9.60;99.90
52209;DHT22;38507;53.132;6.394;2023-04-15T14:03:56;9.90;99.90
52209;DHT22;38507;53.132;6.394;2023-04-15T14:06:22;10.10;99.90
52209;DHT22;38507;53.132;6.394;2023-04-15T14:08:48;9.50;99.90
52209;DHT22;38507;53.132;6.394;2023-04-15T14:11:14;9.40;99.90
52209;DHT22;38507;53.132;6.394;2023-04-15T14:13:39;9.30;99.90
52209;DHT22;38507;53.132;6.394;2023-04-15T14:16:05;9.30;99.90
52209;DHT22;38507;53.132;6.394;2023-04-15T14:18:32;9.30;99.90
52209;DHT22;38507;53.132;6.394;2023-04-15T14:20:57;9.70;99.90
52209;DHT22;38507;53.132;6.394;2023-04-15T14:23:23;9.60;99.90
52209;DHT22;38507;53.132;6.394;2023-04-15T14:25:49;9.20;99.90
52209;DHT22;38507;53.132;6.394;2023-04-15T14:28:16;9.10;99.90
52209;DHT22;38507;53.132;6.394;2023-04-15T14:30:41;9.40;99.90
52209;DHT22;38507;53.132;6.394;2023-04-15T14:33:07;9.80;99.90
52209;DHT22;38507;53.132;6.394;2023-04-15T14:35:33;9.40;99.90
52209;DHT22;38507;53.132;6.394;2023-04-15T14:37:58;9.20;99.90
52209;DHT22;38507;53.132;6.394;2023-04-15T14:40:24;9.70;99.90
52209;DHT22;38507;53.132;6.394;2023-04-15T14:42:50;9.00;99.90
52209;DHT22;38507;53.132;6.394;2023-04-15T14:45:15;9.00;99.90
52209;DHT22;38507;53.132;6.394;2023-04-15T14:47:42;9.10;99.90
52209;DHT22;38507;53.132;6.394;2023-04-15T14:50:08;8.90;99.90
52209;DHT22;38507;53.132;6.394;2023-04-15T14:52:34;8.80;99.90
52209;DHT22;38507;53.132;6.394;2023-04-15T14:55:10;8.40;99.90
52209;DHT22;38507;53.132;6.394;2023-04-15T14:57:37;8.80;99.90
52209;DHT22;38507;53.132;6.394;2023-04-15T15:00:04;9.20;99.90
52209;DHT22;38507;53.132;6.394;2023-04-15T15:02:30;8.80;99.90
52209;DHT22;38507;53.132;6.394;2023-04-15T15:04:56;8.80;99.90
52209;DHT22;38507;53.132;6.394;2023-04-15T15:07:22;8.80;99.90
52209;DHT22;38507;53.132;6.394;2023-04-15T15:09:48;9.40;99.90
52209;DHT22;38507;53.132;6.394;2023-04-15T15:12:14;9.10;99.90
52209;DHT22;38507;53.132;6.394;2023-04-15T15:14:40;8.70;99.90
52209;DHT22;38507;53.132;6.394;2023-04-15T15:17:06;9.00;99.90
52209;DHT22;38507;53.132;6.394;2023-04-15T15:19:32;9.30;99.90
52209;DHT22;38507;53.132;6.394;2023-04-15T15:21:57;8.90;99.90
52209;DHT22;38507;53.132;6.394;2023-04-15T15:24:23;8.70;99.90
52209;DHT22;38507;53.132;6.394;2023-04-15T15:26:49;8.60;99.90
52209;DHT22;38507;53.132;6.394;2023-04-15T15:29:14;8.50;99.90
52209;DHT22;38507;53.132;6.394;2023-04-15T15:31:40;8.50;99.90
52209;DHT22;38507;53.132;6.394;2023-04-15T15:34:06;8.50;99.90
52209;DHT22;38507;53.132;6.394;2023-04-15T15:36:31;8.50;99.90
52209;DHT22;38507;53.132;6.394;2023-04-15T15:38:57;8.40;99.90
52209;DHT22;38507;53.132;6.394;2023-04-15T15:41:24;8.40;99.90
52209;DHT22;38507;53.132;6.394;2023-04-15T15:43:50;8.40;99.90
52209;DHT22;38507;53.132;6.394;2023-04-15T15:46:16;8.40;99.90
52209;DHT22;38507;53.132;6.394;2023-04-15T15:48:42;8.50;99.90
52209;DHT22;38507;53.132;6.394;2023-04-15T15:51:08;8.30;99.90
52209;DHT22;38507;53.132;6.394;2023-04-15T15:53:34;8.30;99.90
52209;DHT22;38507;53.132;6.394;2023-04-15T15:55:59;8.30;99.90
52209;DHT22;38507;53.132;6.394;2023-04-15T15:58:25;8.20;99.90